ACT        NSW        VIC        QLD        SA        WA        TAS        NT        INFO        CALC            by VK5ZD

  Atmospheric Gas Attenuation - ITU Rec 676-11   --------------- db/100km ---------------
SA Stations Date Time Temp RH % AH g/m3 Dew Point Wind Direction Speed kph Gust kph Barometer mB Rainfall Since 9am 24GHz 47GHz 76GHz 122GHz 134GHz 241GHz
Adelaide (West Terrace / Ngayirdapira) 11 21:50 12.4 69 7.54 6.9 7 9 1025.3 0 17.4 25.0 36.8 96.2 87.1 298.5
Adelaide Airport 11 21:50 10.9 77 7.66 7.1 7 9 1025.5 0 17.7 25.7 38.0 99.3 90.4 309.9
Andamooka 11 09:00 16.4 56 7.82 7.7 19 1013.1 0 17.8 23.9 35.5 93.1 85.4 293.2
Cape Borda 11 21:50 10.5 92 8.92 9.3 11 13 1025.9 0 20.4 27.9 43.5 114.0 108.3 372.4
Cape Jaffa 11 21:50 10.7 69 6.78 5.2 9 11 1013.1 0.2 15.8 23.8 34.0 89.0 78.2 267.2
Cape Willoughby 11 21:50 15.1 61 7.87 7.6 22 26 1013.1 0 18.0 24.4 36.3 95.1 87.4 300.2
Ceduna 11 21:50 14.6 74 9.26 10 17 20 1023.4 0 20.9 27.1 42.5 111.6 107.0 368.6
Clare 11 21:50 9.8 61 5.66 2.6 9 11 1024.1 0.2 13.5 22.7 30.5 79.4 65.5 222.4
Cleve 11 09:00 14.7 66 8.31 8.4 28 1024.9 0.4 18.9 25.6 38.7 101.4 94.4 324.5
Cleve Airport 11 21:50 13.4 60 6.98 5.8 0 0 1024.4 0 16.1 23.9 34.1 89.1 78.8 269.6
Coober Pedy Airport 11 21:50 15.9 47 6.36 4.6 13 15 1021.9 0 14.7 22.2 30.7 80.1 68.7 234.7
Coonawarra 11 21:50 11 82 8.21 8.1 6 6 1024.9 0.2 18.9 26.5 40.1 105.2 97.7 335.4
Cultana (Defence) 11 21:50 14.5 58 7.21 6.3 19 24 1013.1 0 16.6 23.5 34.1 89.1 79.8 273.4
Cummins Airport 11 21:50 9 78 6.88 5.4 6 7 1025.3 0 16.1 24.9 35.7 93.2 82.1 280.5
Edinburgh 11 21:50 13.3 59 6.82 5.5 9 11 1025.4 0 15.8 23.7 33.6 87.7 76.9 263.1
Edithburgh 11 21:50 15.4 61 8.01 7.9 17 20 1013.1 0 18.3 24.5 36.7 96.2 88.8 305.2
Ernabella/Pukatja 11 21:50 13.5 53 6.2 4.1 13 15 1019.1 0 14.5 22.5 30.9 80.7 68.7 234.3
Eudunda 11 09:00 13 56 6.35 4.4 33 1023.2 0.6 14.8 23.0 31.8 83.1 71.2 243.1
Gluepot 11 09:00 15.5 49 6.48 4.9 15 1013.1 0 15.0 22.2 31.0 80.9 70.0 239.0
Hindmarsh Island 11 21:50 14.7 63 7.93 7.7 22 24 1025.2 0 18.1 25.0 37.2 97.4 89.5 307.4
Kadina 11 21:50 12.1 69 7.4 6.6 17 17 1024.8 0 17.1 24.9 36.3 95.0 85.6 293.2
Karoonda 11 09:00 15.4 46 6.04 4 13 1013.1 0.6 14.1 21.6 29.4 76.8 64.9 221.1
Keith 11 09:00 14.1 80 9.71 10.7 19 1022.6 0.8 21.9 28.0 44.6 117.2 113.8 392.2
Keith West 11 21:50 9.4 71 6.42 4.4 7 9 1013.1 0 15.1 23.6 33.2 86.7 74.8 255.3
Kingscote 11 21:50 6.3 78 5.78 2.8 11 11 1025.8 0 13.9 23.9 32.4 84.5 70.2 238.3
Kuitpo 11 21:50 9.7 82 7.56 6.8 15 17 1023.6 0 17.5 25.8 38.0 99.6 90.3 309.5
Kyancutta 11 15:00 22.1 32 6.25 4.7 4 1022.7 0 14.3 20.7 28.2 73.4 62.5 213.5
Lameroo Aws 11 21:50 7.6 75 6.04 3.4 9 11 1013.1 0 14.4 23.5 32.4 84.6 71.6 243.7
Leigh Creek 11 21:50 15.5 41 5.42 2.3 6 7 1022 0 12.8 21.0 27.5 71.6 58.1 197.2
Loxton 11 21:50 11.3 60 6.12 3.8 9 11 1024.6 0 14.4 23.1 31.7 82.6 70.0 238.4
Marree Airport 11 21:50 15.6 40 5.32 2.1 15 15 1022.4 0 12.6 20.8 27.2 70.6 56.9 193.0
Minlaton Airport 11 21:50 14 69 8.32 8.4 13 13 1025.2 0 19.0 25.8 39.1 102.4 95.4 328.0
Minnipa Rs 11 21:50 13.7 50 5.92 3.5 22 26 1024.1 0 13.9 22.2 30.0 78.2 65.5 222.8
Moomba Airport 11 21:50 15.6 45 5.98 3.7 13 13 1021.3 0 13.9 21.7 29.5 76.7 64.5 219.6
Mount Crawford 11 21:50 8.3 75 6.32 4.1 19 20 1024 0 14.9 24.2 33.7 87.9 75.3 256.6
Mount Gambier 11 21:50 9.3 78 7.01 5.7 7 9 1024.8 0 16.4 25.0 36.0 94.2 83.5 285.4
Mount Lofty 11 21:50 7.8 86 7.02 5.7 9 15 1013.1 0.2 16.5 25.0 36.3 94.9 84.4 288.6
Murray Bridge 11 09:00 15.8 58 7.81 7.6 30 1013.1 0.5 17.8 24.1 35.8 93.7 85.9 294.9
Naracoorte 11 21:50 8.3 81 6.83 5.2 7 9 1025 0 16.0 25.0 35.8 93.5 82.1 280.6
Noarlunga 11 21:50 12 77 8.21 8.2 9 9 1013.1 0 18.8 25.8 39.1 102.6 95.5 328.0
Nullarbor 11 21:50 15.8 67 9.02 9.7 24 28 1022.4 0 20.4 26.3 40.9 107.2 102.1 351.6
Nuriootpa 11 21:50 8.2 82 6.87 5.3 7 9 1025.4 0 16.1 25.1 36.0 94.0 82.8 282.9
Oodnadatta 11 21:50 15.1 47 6.06 3.9 13 15 1021.2 0 14.1 21.9 29.9 77.9 65.8 224.3
Padthaway 11 21:50 8.9 76 6.66 4.9 0 0 1013.1 0 15.7 24.1 34.3 89.8 78.4 267.9
Pallamana 11 21:50 9.6 75 6.87 5.4 9 11 1026 0 16.1 24.8 35.4 92.4 81.4 278.1
Parafield 11 21:50 12.1 67 7.19 6.2 9 11 1025.3 0 16.6 24.6 35.5 92.8 82.9 283.7
Parawa West 11 21:50 11.3 76 7.75 7.2 13 15 1013.1 0 17.9 25.2 37.6 98.5 90.2 309.4
Parndana 11 21:50 8.5 72 6.15 3.7 4 4 1013.1 0 14.6 23.4 32.5 84.8 72.2 245.9
Point Avoid 11 21:50 11.1 77 7.76 7.2 11 13 1013.1 0 17.9 25.3 37.7 98.9 90.5 310.7
Port Augusta 11 21:50 15.7 52 6.96 5.9 20 26 1023.6 0 16.0 23.2 33.1 86.3 76.2 260.9
Port Lincoln Airport 11 21:50 15.6 63 8.38 8.6 19 20 1025.5 0 19.0 25.5 38.6 101.0 94.3 324.2
Port Pirie Airport Aws 11 21:50 10.8 66 6.52 4.7 15 17 1023.9 0 15.3 23.8 33.4 87.2 75.5 257.6
Renmark Airport 11 21:50 12.7 56 6.23 4.2 13 17 1024.1 0 14.6 22.9 31.6 82.3 70.1 239.0
Robe Airport 11 21:50 8.3 82 6.91 5.4 0 0 1013.1 0 16.2 24.7 35.6 93.1 82.4 281.6
Roseworthy 11 21:50 7.8 67 5.47 2.1 9 11 1024.9 0 13.1 23.0 30.6 79.6 64.8 219.7
Roxby Downs 11 21:50 14.4 47 5.81 3.2 11 11 1022.4 0 13.6 21.8 29.3 76.3 63.5 216.0
Snowtown 11 21:50 11.2 60 6.08 3.7 17 19 1024.8 0 14.3 23.1 31.6 82.3 69.6 237.0
Stenhouse Bay 11 21:50 14.2 54 6.59 5 13 17 1013.1 0 15.3 22.7 31.9 83.3 72.5 247.6
Strathalbyn 11 21:50 10.1 74 7 5.7 4 6 1025.6 0 16.3 24.8 35.7 93.2 82.5 282.2
Streaky Bay 11 09:00 16.8 28 4 -1.7 19 1031.7 0 9.8 19.1 22.7 58.6 42.0 140.5
Tarcoola 11 21:50 13.7 43 5.09 1.4 6 6 1022.9 0 12.1 20.9 27.0 70.2 55.6 188.2
Victor Harbor 11 09:00 16 50 6.81 5.6 24 1013.1 0.4 15.7 22.5 32.0 83.6 73.5 251.4
Whyalla 11 21:50 15.9 58 7.85 7.7 19 22 1024 0 17.9 24.5 36.3 95.1 87.1 299.0
Woomera 11 21:50 15.3 47 6.14 4.1 20 24 1023.2 0 14.3 22.1 30.2 78.7 66.7 227.5
Wudinna Airport 11 21:50 13.3 53 6.12 3.9 13 17 1024.5 0 14.3 22.6 30.9 80.6 68.2 232.5
Yunta 11 21:50 12.8 46 5.15 1.4 15 17 1013.1 0 12.3 20.9 27.2 70.7 56.4 191.1

Last Refresh: 11-Apr-2021 22:05:35

Bureau of Meteorology